createdAt,value
2022-10-25T00:01:50.515Z,19.02
2022-10-25T00:04:23.422Z,21.65
2022-10-25T00:06:56.207Z,16.10
2022-10-25T00:09:28.782Z,16.60
2022-10-25T00:12:01.256Z,23.50
2022-10-25T00:14:33.895Z,21.05
2022-10-25T00:17:06.463Z,18.17
2022-10-25T00:19:39.107Z,18.58
2022-10-25T00:22:11.586Z,17.77
2022-10-25T00:24:44.109Z,27.27
2022-10-25T00:27:16.615Z,27.45
2022-10-25T00:29:49.288Z,20.60
2022-10-25T00:32:21.784Z,24.90
2022-10-25T00:34:54.304Z,26.88
2022-10-25T00:37:27.917Z,23.90
2022-10-25T00:40:00.460Z,27.02
2022-10-25T00:42:33.149Z,22.80
2022-10-25T00:45:22.433Z,28.30
2022-10-25T00:48:06.650Z,18.40
2022-10-25T00:50:51.348Z,19.45
2022-10-25T00:53:29.573Z,25.90
2022-10-25T00:56:11.634Z,21.15
2022-10-25T00:58:49.659Z,28.98
2022-10-25T01:01:24.311Z,22.98
2022-10-25T01:04:01.036Z,24.45
2022-10-25T01:06:43.673Z,21.13
2022-10-25T01:09:22.571Z,19.13
2022-10-25T01:11:55.286Z,21.38
2022-10-25T01:14:28.417Z,20.35
2022-10-25T01:17:26.491Z,20.90
2022-10-25T01:20:29.289Z,17.60
2022-10-25T01:23:25.169Z,22.58
2022-10-25T01:26:11.226Z,25.95
2022-10-25T01:29:08.684Z,22.15
2022-10-25T01:31:49.417Z,23.83
2022-10-25T01:34:29.384Z,23.00
2022-10-25T01:37:12.461Z,22.80
2022-10-25T01:39:49.803Z,23.55
2022-10-25T01:42:30.193Z,21.17
2022-10-25T01:45:21.856Z,19.40
2022-10-25T01:48:04.739Z,24.88
2022-10-25T01:50:41.623Z,21.88
2022-10-25T01:53:15.083Z,23.75
2022-10-25T01:55:53.350Z,19.48
2022-10-25T01:58:38.975Z,22.95
2022-10-25T02:01:39.615Z,22.10
2022-10-25T02:04:20.052Z,26.40
2022-10-25T02:06:58.995Z,23.02
2022-10-25T02:09:37.174Z,22.30
2022-10-25T02:12:15.271Z,23.92
2022-10-25T02:15:07.842Z,28.58
2022-10-25T02:17:54.695Z,21.30
2022-10-25T02:20:31.244Z,26.20
2022-10-25T02:23:06.272Z,21.55
2022-10-25T02:25:41.252Z,25.00
2022-10-25T02:28:16.707Z,20.95
2022-10-25T02:30:51.630Z,25.42
2022-10-25T02:33:24.206Z,27.48
2022-10-25T02:36:21.318Z,27.70
2022-10-25T02:38:54.750Z,24.55
2022-10-25T02:41:27.457Z,25.65
2022-10-25T02:44:00.278Z,29.80
2022-10-25T02:46:32.759Z,25.70
2022-10-25T02:49:05.387Z,25.45
2022-10-25T02:51:38.478Z,27.63
2022-10-25T02:54:11.124Z,24.45
2022-10-25T02:56:43.716Z,27.85
2022-10-25T02:59:16.225Z,24.08
2022-10-25T03:01:49.323Z,26.48
2022-10-25T03:04:22.369Z,26.08
2022-10-25T03:06:54.937Z,29.60
2022-10-25T03:09:27.442Z,27.48
2022-10-25T03:11:59.999Z,26.45
2022-10-25T03:14:32.517Z,22.38
2022-10-25T03:17:06.552Z,28.13
2022-10-25T03:19:39.069Z,31.95
2022-10-25T03:22:11.588Z,29.60
2022-10-25T03:24:44.089Z,26.80
2022-10-25T03:27:18.028Z,24.15
2022-10-25T03:29:50.680Z,21.38
2022-10-25T03:32:23.355Z,22.75
2022-10-25T03:34:55.965Z,25.15
2022-10-25T03:37:28.478Z,25.45
2022-10-25T03:40:01.083Z,33.15
2022-10-25T03:42:33.569Z,34.33
2022-10-25T03:45:06.831Z,26.52
2022-10-25T03:47:40.061Z,31.52
2022-10-25T03:50:13.355Z,23.77
2022-10-25T03:52:45.931Z,25.65
2022-10-25T03:55:18.682Z,29.27
2022-10-25T03:57:51.142Z,30.10
2022-10-25T04:00:23.782Z,25.70
2022-10-25T04:03:01.738Z,28.98
2022-10-25T04:05:35.511Z,25.80
2022-10-25T04:08:08.013Z,30.58
2022-10-25T04:10:40.654Z,27.95
2022-10-25T04:13:13.196Z,28.38
2022-10-25T04:15:45.738Z,30.23
2022-10-25T04:18:18.258Z,28.88
2022-10-25T04:20:50.797Z,30.33
2022-10-25T04:23:23.438Z,28.38
2022-10-25T04:25:57.308Z,28.65
2022-10-25T04:28:29.819Z,32.38
2022-10-25T04:31:03.404Z,32.40
2022-10-25T04:33:35.997Z,32.20
2022-10-25T04:36:09.172Z,29.65
2022-10-25T04:38:41.875Z,34.53
2022-10-25T04:41:14.520Z,46.78
2022-10-25T04:43:48.067Z,36.40
2022-10-25T04:46:21.333Z,44.95
2022-10-25T04:48:53.986Z,44.63
2022-10-25T04:51:26.612Z,40.30
2022-10-25T04:53:59.261Z,41.58
2022-10-25T04:56:32.861Z,42.25
2022-10-25T04:59:05.495Z,41.35
2022-10-25T05:01:38.391Z,46.03
2022-10-25T05:04:11.042Z,50.83
2022-10-25T05:06:43.633Z,54.10
2022-10-25T05:09:16.127Z,55.67
2022-10-25T05:11:48.634Z,54.42
2022-10-25T05:14:21.283Z,54.08
2022-10-25T05:16:53.970Z,59.90
2022-10-25T05:19:26.713Z,53.40
2022-10-25T05:21:59.268Z,54.38
2022-10-25T05:24:31.828Z,51.25
2022-10-25T05:27:05.013Z,52.90
2022-10-25T05:29:37.655Z,51.38
2022-10-25T05:32:10.197Z,54.83
2022-10-25T05:34:42.866Z,55.85
2022-10-25T05:37:15.451Z,54.95
2022-10-25T05:39:48.061Z,51.47
2022-10-25T05:42:20.626Z,58.72
2022-10-25T05:44:53.107Z,63.08
2022-10-25T05:47:25.681Z,58.75
2022-10-25T05:49:58.198Z,53.83
2022-10-25T05:52:30.706Z,62.78
2022-10-25T05:55:03.355Z,58.35
2022-10-25T05:57:36.237Z,53.53
2022-10-25T06:00:09.258Z,56.83
2022-10-25T06:02:41.917Z,55.85
2022-10-25T06:05:14.490Z,57.80
2022-10-25T06:07:47.417Z,61.60
2022-10-25T06:10:19.887Z,61.42
2022-10-25T06:12:52.463Z,65.80
2022-10-25T06:15:25.154Z,64.82
2022-10-25T06:17:58.329Z,60.63
2022-10-25T06:20:31.024Z,65.40
2022-10-25T06:23:06.094Z,62.42
2022-10-25T06:25:40.652Z,65.43
2022-10-25T06:28:13.154Z,63.80
2022-10-25T06:30:45.657Z,66.85
2022-10-25T06:33:18.136Z,66.88
2022-10-25T06:35:56.126Z,63.53
2022-10-25T06:38:29.596Z,66.03
2022-10-25T06:41:08.275Z,68.78
2022-10-25T06:43:40.844Z,63.92
2022-10-25T06:46:22.876Z,65.65
2022-10-25T06:48:57.873Z,63.15
2022-10-25T06:51:31.126Z,69.25
2022-10-25T06:54:08.362Z,67.70
2022-10-25T06:56:40.917Z,67.38
2022-10-25T06:59:13.521Z,61.63
2022-10-25T07:01:46.940Z,67.00
2022-10-25T07:04:21.154Z,60.15
2022-10-25T07:06:55.345Z,64.10
2022-10-25T07:09:28.852Z,64.63
2022-10-25T07:12:01.319Z,60.47
2022-10-25T07:14:33.851Z,61.53
2022-10-25T07:17:06.293Z,65.47
2022-10-25T07:19:39.014Z,66.00
2022-10-25T07:22:11.640Z,50.80
2022-10-25T07:24:44.271Z,55.70
2022-10-25T07:27:17.178Z,61.28
2022-10-25T07:29:50.731Z,59.05
2022-10-25T07:32:23.665Z,59.85
2022-10-25T07:37:33.996Z,62.05
2022-10-25T07:40:07.585Z,57.13
2022-10-25T07:42:40.185Z,65.03
2022-10-25T07:45:12.730Z,61.60
2022-10-25T07:47:45.557Z,59.42
2022-10-25T07:50:20.035Z,63.92
2022-10-25T07:52:52.749Z,61.28
2022-10-25T07:55:25.896Z,63.65
2022-10-25T07:58:04.902Z,59.15
2022-10-25T08:00:39.763Z,65.25
2022-10-25T08:03:13.902Z,73.80
2022-10-25T08:05:48.238Z,71.40
2022-10-25T08:08:23.491Z,70.68
2022-10-25T08:10:59.959Z,77.20
2022-10-25T08:13:32.462Z,79.03
2022-10-25T08:16:06.152Z,85.10
2022-10-25T08:18:38.939Z,94.57
2022-10-25T08:21:11.913Z,101.68
2022-10-25T08:23:44.458Z,88.28
2022-10-25T08:26:17.188Z,85.93
2022-10-25T08:28:51.703Z,87.20
2022-10-25T08:31:24.932Z,80.30
2022-10-25T08:33:57.767Z,87.00
2022-10-25T08:36:30.519Z,85.75
2022-10-25T08:39:03.133Z,85.00
2022-10-25T08:41:53.276Z,83.55
2022-10-25T08:44:42.594Z,87.18
2022-10-25T08:47:27.418Z,82.93
2022-10-25T08:50:12.081Z,81.95
2022-10-25T08:52:50.349Z,76.93
2022-10-25T08:55:29.351Z,96.53
2022-10-25T08:58:05.040Z,81.60
2022-10-25T09:00:40.504Z,79.72
2022-10-25T09:03:18.417Z,78.70
2022-10-25T09:06:07.856Z,81.20
2022-10-25T09:08:47.578Z,76.40
2022-10-25T09:11:50.599Z,77.53
2022-10-25T09:14:54.399Z,68.53
2022-10-25T09:17:38.011Z,74.90
2022-10-25T09:20:20.275Z,72.00
2022-10-25T09:23:09.737Z,72.13
2022-10-25T09:25:47.495Z,70.75
2022-10-25T09:28:33.166Z,66.00
2022-10-25T09:31:07.444Z,74.97
2022-10-25T09:33:45.474Z,69.10
2022-10-25T09:36:19.013Z,71.25
2022-10-25T09:38:57.300Z,65.60
2022-10-25T09:41:40.315Z,71.20
2022-10-25T09:44:22.740Z,68.70
2022-10-25T09:47:03.472Z,71.78
2022-10-25T09:49:53.882Z,67.20
2022-10-25T09:52:29.562Z,72.13
2022-10-25T09:57:40.169Z,73.97
2022-10-25T10:00:14.960Z,65.82
2022-10-25T10:02:47.876Z,71.43
2022-10-25T10:05:22.125Z,65.95
2022-10-25T10:07:55.459Z,63.90
2022-10-25T10:10:33.366Z,69.57
2022-10-25T10:13:12.737Z,61.85
2022-10-25T10:16:20.370Z,64.25
2022-10-25T10:19:14.428Z,61.20
2022-10-25T10:21:56.580Z,59.80
2022-10-25T10:24:35.333Z,59.13
2022-10-25T10:27:12.139Z,59.80
2022-10-25T10:30:07.414Z,57.00
2022-10-25T10:35:35.541Z,58.55
2022-10-25T10:38:26.242Z,57.17
2022-10-25T10:41:14.714Z,53.75
2022-10-25T10:43:47.266Z,58.28
2022-10-25T10:46:20.486Z,55.17
2022-10-25T10:48:57.604Z,49.38
2022-10-25T10:51:44.465Z,61.22
2022-10-25T10:54:36.582Z,51.90
2022-10-25T10:57:32.980Z,59.28
2022-10-25T11:00:06.332Z,51.67
2022-10-25T11:02:41.875Z,51.88
2022-10-25T11:05:21.528Z,47.55
2022-10-25T11:07:59.698Z,53.25
2022-10-25T11:10:35.803Z,48.80
2022-10-25T11:13:11.657Z,48.75
2022-10-25T11:15:48.090Z,51.25
2022-10-25T11:18:33.353Z,48.00
2022-10-25T11:21:22.759Z,43.58
2022-10-25T11:24:26.475Z,48.83
2022-10-25T11:27:15.664Z,50.40
2022-10-25T11:29:57.358Z,48.30
2022-10-25T11:33:02.191Z,51.22
2022-10-25T11:35:59.629Z,43.78
2022-10-25T11:38:47.782Z,41.35
2022-10-25T11:41:51.442Z,48.72
2022-10-25T11:44:43.013Z,39.45
2022-10-25T11:47:49.066Z,41.17
2022-10-25T11:50:38.835Z,42.58
2022-10-25T11:53:35.463Z,42.25
2022-10-25T11:56:13.198Z,47.78
2022-10-25T11:58:57.713Z,37.25
2022-10-25T12:04:52.753Z,37.03
2022-10-25T12:07:36.706Z,35.83
2022-10-25T12:10:20.007Z,42.53
2022-10-25T12:12:59.618Z,39.50
2022-10-25T12:15:38.887Z,33.53
2022-10-25T12:18:17.544Z,38.97
2022-10-25T12:20:51.428Z,38.70
2022-10-25T12:23:27.400Z,37.70
2022-10-25T12:26:06.942Z,39.42
2022-10-25T12:28:46.575Z,36.95
2022-10-25T12:31:30.270Z,39.90
2022-10-25T12:34:23.517Z,38.30
2022-10-25T12:37:03.691Z,34.13
2022-10-25T12:39:42.189Z,38.58
2022-10-25T12:42:33.794Z,40.78
2022-10-25T12:45:43.126Z,35.05
2022-10-25T12:48:17.643Z,37.40
2022-10-25T12:50:55.121Z,38.90
2022-10-25T12:53:59.095Z,31.45
2022-10-25T12:56:39.880Z,37.88
2022-10-25T12:59:39.178Z,35.10
2022-10-25T13:02:28.105Z,37.30
2022-10-25T13:05:27.348Z,35.88
2022-10-25T13:08:03.800Z,33.25
2022-10-25T13:10:42.624Z,38.08
2022-10-25T13:13:34.907Z,35.28
2022-10-25T13:16:11.400Z,36.60
2022-10-25T13:18:45.500Z,34.13
2022-10-25T13:21:53.581Z,34.65
2022-10-25T13:24:43.107Z,31.52
2022-10-25T13:27:16.407Z,35.38
2022-10-25T13:29:49.783Z,36.03
2022-10-25T13:32:22.440Z,31.48
2022-10-25T13:34:59.284Z,32.00
2022-10-25T13:37:34.212Z,33.53
2022-10-25T13:40:20.018Z,36.42
2022-10-25T13:43:05.726Z,36.65
2022-10-25T13:45:53.841Z,34.90
2022-10-25T13:48:32.338Z,32.75
2022-10-25T13:51:12.969Z,30.65
2022-10-25T13:53:49.287Z,33.47
2022-10-25T13:56:23.449Z,36.67
2022-10-25T13:58:57.881Z,29.08
2022-10-25T14:01:32.499Z,28.63
2022-10-25T14:04:20.524Z,29.17
2022-10-25T14:06:54.547Z,23.10
2022-10-25T14:09:33.897Z,24.88
2022-10-25T14:12:16.791Z,24.35
2022-10-25T14:15:14.748Z,28.35
2022-10-25T14:17:48.972Z,24.70
2022-10-25T14:20:30.703Z,23.70
2022-10-25T14:23:07.617Z,24.70
2022-10-25T14:25:43.115Z,23.30
2022-10-25T14:28:21.919Z,29.38
2022-10-25T14:30:58.834Z,24.27
2022-10-25T14:33:40.802Z,20.35
2022-10-25T14:36:32.183Z,26.40
2022-10-25T14:39:17.942Z,21.55
2022-10-25T14:44:28.829Z,19.77
2022-10-25T14:47:01.431Z,18.20
2022-10-25T14:49:34.298Z,22.70
2022-10-25T14:52:08.502Z,20.20
2022-10-25T14:54:42.285Z,19.45
2022-10-25T14:57:17.955Z,19.67
2022-10-25T15:02:37.451Z,26.08
2022-10-25T15:05:21.604Z,21.05
2022-10-25T15:07:56.789Z,18.23
2022-10-25T15:10:47.817Z,22.50
2022-10-25T15:13:28.597Z,18.60
2022-10-25T15:16:03.818Z,20.83
2022-10-25T15:18:37.963Z,21.02
2022-10-25T15:21:15.296Z,21.77
2022-10-25T15:24:18.461Z,21.70
2022-10-25T15:26:56.712Z,21.67
2022-10-25T15:32:27.874Z,24.02
2022-10-25T15:35:02.570Z,21.45
2022-10-25T15:37:35.202Z,24.42
2022-10-25T15:40:16.620Z,19.73
2022-10-25T15:42:49.937Z,23.27
2022-10-25T15:45:22.551Z,28.15
2022-10-25T15:47:57.769Z,23.17
2022-10-25T15:50:30.520Z,24.63
2022-10-25T15:53:03.370Z,28.10
2022-10-25T15:55:36.051Z,26.98
2022-10-25T15:58:10.672Z,29.13
2022-10-25T16:00:45.367Z,24.75
2022-10-25T16:03:23.025Z,20.45
2022-10-25T16:05:55.674Z,20.38
2022-10-25T16:08:28.357Z,24.20
2022-10-25T16:11:01.066Z,19.30
2022-10-25T16:13:37.404Z,22.23
2022-10-25T16:16:38.984Z,21.45
2022-10-25T16:19:16.593Z,20.98
2022-10-25T16:21:49.480Z,22.40
2022-10-25T16:24:22.183Z,20.70
2022-10-25T16:26:54.937Z,20.70
2022-10-25T16:29:27.858Z,20.95
2022-10-25T16:32:00.472Z,24.92
2022-10-25T16:34:33.489Z,22.92
2022-10-25T16:37:09.260Z,20.75
2022-10-25T16:39:44.373Z,18.98
2022-10-25T16:42:35.463Z,23.55
2022-10-25T16:45:38.935Z,23.95
2022-10-25T16:48:12.098Z,21.75
2022-10-25T16:50:45.154Z,18.98
2022-10-25T16:53:17.831Z,24.45
2022-10-25T16:55:50.543Z,26.30
2022-10-25T16:58:23.149Z,18.15
2022-10-25T17:00:59.072Z,24.52
2022-10-25T17:03:31.666Z,32.30
2022-10-25T17:06:22.297Z,23.55
2022-10-25T17:08:59.156Z,22.17
2022-10-25T17:11:32.746Z,32.38
2022-10-25T17:14:06.023Z,32.20
2022-10-25T17:16:42.039Z,25.73
2022-10-25T17:19:14.691Z,26.63
2022-10-25T17:21:47.378Z,25.08
2022-10-25T17:24:20.730Z,23.85
2022-10-25T17:26:53.619Z,21.63
2022-10-25T17:29:26.396Z,23.10
2022-10-25T17:32:01.303Z,21.60
2022-10-25T17:34:33.934Z,23.55
2022-10-25T17:37:07.651Z,20.30
2022-10-25T17:39:41.206Z,20.15
2022-10-25T17:42:14.043Z,22.50
2022-10-25T17:44:47.086Z,21.38
2022-10-25T17:47:19.798Z,21.60
2022-10-25T17:49:54.740Z,23.23
2022-10-25T17:52:27.947Z,27.73
2022-10-25T17:55:00.561Z,28.02
2022-10-25T17:57:34.863Z,25.88
2022-10-25T18:00:08.652Z,23.25
2022-10-25T18:02:51.162Z,27.75
2022-10-25T18:05:23.731Z,28.52
2022-10-25T18:07:56.377Z,28.42
2022-10-25T18:10:28.929Z,24.08
2022-10-25T18:13:01.940Z,30.52
2022-10-25T18:15:36.093Z,29.13
2022-10-25T18:18:09.246Z,26.83
2022-10-25T18:20:42.200Z,28.60
2022-10-25T18:23:16.576Z,22.52
2022-10-25T18:25:52.954Z,25.83
2022-10-25T18:28:25.865Z,28.27
2022-10-25T18:31:14.070Z,27.75
2022-10-25T18:33:48.527Z,30.08
2022-10-25T18:36:23.089Z,25.27
2022-10-25T18:38:58.290Z,26.15
2022-10-25T18:41:34.614Z,26.73
2022-10-25T18:44:09.345Z,26.38
2022-10-25T18:46:45.560Z,28.38
2022-10-25T18:49:18.447Z,25.02
2022-10-25T18:51:51.266Z,29.80
2022-10-25T18:54:24.002Z,29.90
2022-10-25T18:56:56.611Z,38.17
2022-10-25T18:59:29.482Z,53.22
2022-10-25T19:02:02.907Z,47.97
2022-10-25T19:04:36.317Z,38.22
2022-10-25T19:07:08.930Z,31.20
2022-10-25T19:09:41.719Z,29.80
2022-10-25T19:12:14.495Z,24.35
2022-10-25T19:17:21.466Z,27.17
2022-10-25T19:19:54.461Z,25.33
2022-10-25T19:22:27.852Z,27.77
2022-10-25T19:25:00.776Z,29.52
2022-10-25T19:27:33.617Z,23.75
2022-10-25T19:30:07.455Z,26.83
2022-10-25T19:32:40.102Z,24.42
2022-10-25T19:35:12.887Z,29.83
2022-10-25T19:37:45.967Z,27.38
2022-10-25T19:40:19.341Z,27.90
2022-10-25T19:42:52.037Z,24.73
2022-10-25T19:45:24.733Z,25.20
2022-10-25T19:47:59.435Z,28.42
2022-10-25T19:50:33.353Z,28.63
2022-10-25T19:53:06.049Z,30.83
2022-10-25T19:55:38.933Z,27.73
2022-10-25T19:58:11.876Z,24.80
2022-10-25T20:00:45.501Z,28.67
2022-10-25T20:03:18.415Z,26.33
2022-10-25T20:05:59.560Z,27.67
2022-10-25T20:08:34.715Z,27.60
2022-10-25T20:11:10.443Z,24.77
2022-10-25T20:13:43.320Z,27.13
2022-10-25T20:16:16.069Z,23.13
2022-10-25T20:18:50.074Z,31.67
2022-10-25T20:21:25.785Z,23.80
2022-10-25T20:24:01.226Z,32.25
2022-10-25T20:26:37.260Z,29.10
2022-10-25T20:29:21.549Z,26.27
2022-10-25T20:31:55.341Z,33.58
2022-10-25T20:34:28.043Z,69.60
2022-10-25T20:37:00.680Z,55.33
2022-10-25T20:39:33.238Z,40.50
2022-10-25T20:42:05.980Z,40.92
2022-10-25T20:44:38.568Z,27.77
2022-10-25T20:47:11.337Z,22.65
2022-10-25T20:49:43.980Z,25.42
2022-10-25T20:52:17.945Z,23.77
2022-10-25T20:54:51.016Z,21.38
2022-10-25T20:57:24.020Z,23.27
2022-10-25T20:59:56.510Z,23.50
2022-10-25T21:02:29.154Z,24.25
2022-10-25T21:05:01.698Z,22.77
2022-10-25T21:07:34.650Z,21.70
2022-10-25T21:10:07.549Z,22.23
2022-10-25T21:12:40.426Z,26.27
2022-10-25T21:15:12.989Z,21.55
2022-10-25T21:17:49.721Z,22.83
2022-10-25T21:20:22.452Z,23.45
2022-10-25T21:22:57.023Z,21.77
2022-10-25T21:25:29.779Z,22.98
2022-10-25T21:28:02.764Z,21.08
2022-10-25T21:30:35.647Z,19.30
2022-10-25T21:33:08.230Z,22.60
2022-10-25T21:35:41.305Z,21.98
2022-10-25T21:38:14.168Z,20.48
2022-10-25T21:40:46.687Z,19.77
2022-10-25T21:43:19.400Z,19.77
2022-10-25T21:45:52.023Z,19.17
2022-10-25T21:48:24.919Z,22.45
2022-10-25T21:51:00.895Z,17.95
2022-10-25T21:53:33.735Z,20.58
2022-10-25T21:56:11.031Z,18.10
2022-10-25T21:58:45.616Z,20.40
2022-10-25T22:01:21.217Z,20.52
2022-10-25T22:03:54.107Z,18.17
2022-10-25T22:06:27.575Z,20.73
2022-10-25T22:09:00.119Z,19.98
2022-10-25T22:11:36.014Z,17.90
2022-10-25T22:14:12.891Z,16.98
2022-10-25T22:16:45.557Z,16.77
2022-10-25T22:19:20.746Z,20.60
2022-10-25T22:21:53.466Z,17.75
2022-10-25T22:24:26.157Z,16.95
2022-10-25T22:26:58.690Z,18.15
2022-10-25T22:29:31.266Z,15.85
2022-10-25T22:32:04.062Z,17.58
2022-10-25T22:34:36.628Z,26.92
2022-10-25T22:37:09.197Z,19.35
2022-10-25T22:39:41.892Z,20.67
2022-10-25T22:42:14.407Z,19.88
2022-10-25T22:44:46.861Z,18.80
2022-10-25T22:47:19.357Z,22.33
2022-10-25T22:49:51.896Z,17.30
2022-10-25T22:52:24.379Z,21.88
2022-10-25T22:54:56.967Z,21.52
2022-10-25T22:57:30.785Z,19.40
2022-10-25T23:00:03.641Z,21.00
2022-10-25T23:02:36.051Z,23.55
2022-10-25T23:05:09.015Z,22.17
2022-10-25T23:07:41.500Z,26.33
2022-10-25T23:10:14.726Z,24.05
2022-10-25T23:12:48.671Z,26.65
2022-10-25T23:15:21.630Z,28.48
2022-10-25T23:17:54.198Z,23.75
2022-10-25T23:20:26.747Z,24.42
2022-10-25T23:22:59.268Z,28.08
2022-10-25T23:25:33.750Z,28.88
2022-10-25T23:28:06.392Z,26.25
2022-10-25T23:30:40.011Z,24.35
2022-10-25T23:33:13.956Z,26.10
2022-10-25T23:35:46.608Z,22.92
2022-10-25T23:38:19.293Z,29.33
2022-10-25T23:40:51.830Z,28.13
2022-10-25T23:43:25.000Z,23.63
2022-10-25T23:45:57.889Z,26.23
2022-10-25T23:48:31.070Z,25.15
2022-10-25T23:51:06.899Z,30.50
2022-10-25T23:53:40.183Z,28.63
2022-10-25T23:56:13.843Z,27.60
2022-10-25T23:58:50.796Z,28.17
